Time;durP1;ratioP1;P1;durP2;ratioP2;P2;SDS_P1;SDS_P2;PMS_P1;PMS_P2;Temp;Humidity;BMP_temperature;BMP_pressure;BME280_temperature;BME280_humidity;BME280_pressure;Samples;Min_cycle;Max_cycle;Signal;HPM_P1;HPM_P2
2022/11/12 00:00:42;;;;;;;5.23;3.80;;;;;;;3.76;100.00;102427.97;4884128;29;20227;-71
2022/11/12 00:03:27;;;;;;;7.13;3.70;;;;;;;3.70;100.00;102437.22;4885147;29;20232;-70
2022/11/12 00:06:12;;;;;;;5.43;4.03;;;;;;;3.67;100.00;102435.38;4883497;29;20566;-71
2022/11/12 00:08:57;;;;;;;7.97;4.07;;;;;;;3.64;100.00;102437.00;4887362;29;20215;-69
2022/11/12 00:11:43;;;;;;;6.43;3.63;;;;;;;3.62;100.00;102430.91;4882990;29;20217;-71
2022/11/12 00:14:27;;;;;;;6.13;3.80;;;;;;;3.67;100.00;102431.94;4885679;29;20344;-71
2022/11/12 00:17:14;;;;;;;5.40;3.33;;;;;;;3.67;100.00;102426.78;4879557;29;20280;-71
2022/11/12 00:19:59;;;;;;;8.83;4.00;;;;;;;3.59;100.00;102426.56;4884871;29;20215;-70
2022/11/12 00:22:44;;;;;;;7.63;3.83;;;;;;;3.57;100.00;102429.09;4885234;29;20732;-71
2022/11/12 00:25:29;;;;;;;5.23;3.43;;;;;;;3.55;100.00;102430.75;4887122;29;20219;-71
2022/11/12 00:28:14;;;;;;;10.30;3.97;;;;;;;3.57;100.00;102426.50;4883934;29;20285;-71
2022/11/12 00:30:59;;;;;;;7.43;4.03;;;;;;;3.58;100.00;102425.66;4886546;29;20740;-70
2022/11/12 00:33:46;;;;;;;6.37;3.93;;;;;;;3.57;100.00;102434.25;4883744;29;20355;-71
2022/11/12 00:36:31;;;;;;;6.83;3.87;;;;;;;3.43;100.00;102420.03;4885042;29;20368;-71
2022/11/12 00:39:16;;;;;;;5.07;3.60;;;;;;;3.48;100.00;102417.59;4887484;29;20514;-70
2022/11/12 00:42:00;;;;;;;9.17;4.20;;;;;;;3.49;100.00;102415.06;4884688;29;20287;-71
2022/11/12 00:44:48;;;;;;;6.10;4.03;;;;;;;3.46;100.00;102417.53;4886809;29;20356;-70
2022/11/12 00:47:33;;;;;;;6.40;3.93;;;;;;;3.46;100.00;102422.69;4885500;29;20344;-71
2022/11/12 00:50:19;;;;;;;5.57;4.17;;;;;;;3.47;100.00;102421.88;4885116;29;20246;-70
2022/11/12 00:53:04;;;;;;;6.67;4.00;;;;;;;3.44;100.00;102419.19;4883577;29;20811;-69
2022/11/12 00:55:49;;;;;;;4.20;3.47;;;;;;;3.43;100.00;102417.47;4886621;29;20291;-71
2022/11/12 00:58:36;;;;;;;6.23;3.93;;;;;;;3.42;100.00;102416.56;4882420;29;20213;-70
2022/11/12 01:01:21;;;;;;;8.37;4.23;;;;;;;3.42;100.00;102416.56;4884361;29;20223;-71
2022/11/12 01:04:07;;;;;;;5.23;3.50;;;;;;;3.43;100.00;102412.31;4881698;29;20291;-70
2022/11/12 01:06:53;;;;;;;7.00;4.00;;;;;;;3.47;100.00;102414.16;4882708;29;20228;-70
2022/11/12 01:09:39;;;;;;;5.40;3.67;;;;;;;3.45;100.00;102408.06;4889405;29;20219;-71
2022/11/12 01:12:25;;;;;;;5.27;3.50;;;;;;;3.39;100.00;102415.59;4881405;29;20952;-71
2022/11/12 01:15:10;;;;;;;5.67;3.67;;;;;;;3.30;100.00;102410.16;4886037;29;20243;-70
2022/11/12 01:17:56;;;;;;;4.93;3.83;;;;;;;3.31;100.00;102414.50;4885528;29;20283;-70
2022/11/12 01:20:41;;;;;;;5.37;3.73;;;;;;;3.27;100.00;102413.47;4886543;29;20625;-70
2022/11/12 01:23:27;;;;;;;5.47;4.00;;;;;;;3.33;100.00;102410.25;4886270;29;20248;-71
2022/11/12 01:26:15;;;;;;;5.67;3.67;;;;;;;3.28;100.00;102407.50;4885978;29;20222;-70
2022/11/12 01:29:00;;;;;;;4.40;3.40;;;;;;;3.25;100.00;102409.13;4884297;29;20242;-71
2022/11/12 01:31:45;;;;;;;7.43;3.53;;;;;;;3.32;100.00;102405.91;4884852;29;20244;-71
2022/11/12 01:34:30;;;;;;;6.43;3.70;;;;;;;3.29;100.00;102405.81;4888584;29;20259;-69
2022/11/12 01:37:14;;;;;;;11.13;4.57;;;;;;;3.25;100.00;102411.69;4881911;29;20315;-70
2022/11/12 01:40:01;;;;;;;7.23;4.30;;;;;;;3.24;100.00;102410.81;4885049;29;20291;-71
2022/11/12 01:42:51;;;;;;;9.73;3.70;;;;;;;3.19;100.00;102412.38;4881156;29;20263;-70
2022/11/12 01:45:39;;;;;;;8.80;4.43;;;;;;;3.28;100.00;102417.81;4883008;29;20595;-70
2022/11/12 01:48:27;;;;;;;7.60;4.20;;;;;;;3.35;100.00;102417.19;4886119;29;20745;-70
2022/11/12 01:51:14;;;;;;;5.43;4.03;;;;;;;3.31;100.00;102414.50;4882496;29;20761;-71
2022/11/12 01:54:05;;;;;;;6.87;3.83;;;;;;;3.30;100.00;102415.31;4885638;29;20888;-71
2022/11/12 01:56:52;;;;;;;8.53;3.97;;;;;;;3.33;100.00;102420.56;4886969;29;20307;-71
2022/11/12 01:59:41;;;;;;;6.93;4.27;;;;;;;3.32;100.00;102423.97;4882373;29;20547;-71
2022/11/12 02:02:27;;;;;;;7.57;4.50;;;;;;;3.34;100.00;102427.44;4879140;29;20849;-71
2022/11/12 02:05:14;;;;;;;7.53;4.80;;;;;;;3.36;100.00;102428.38;4884573;29;20223;-71
2022/11/12 02:08:00;;;;;;;7.43;4.50;;;;;;;3.26;100.00;102434.09;4882892;29;20207;-70
2022/11/12 02:10:45;;;;;;;6.90;4.30;;;;;;;3.16;100.00;102432.88;4885762;29;20521;-71
2022/11/12 02:16:37;;;;;;;7.17;4.40;;;;;;;3.17;100.00;102424.34;4886276;29;22247;-70
2022/11/12 02:19:22;;;;;;;6.97;4.37;;;;;;;3.13;100.00;102425.94;4882113;29;20215;-70
2022/11/12 02:22:08;;;;;;;7.63;4.77;;;;;;;3.19;100.00;102427.84;4886072;29;20383;-71
2022/11/12 02:24:53;;;;;;;10.03;4.93;;;;;;;3.21;100.00;102432.22;4885448;29;20236;-71
2022/11/12 02:27:39;;;;;;;6.37;4.20;;;;;;;3.17;100.00;102438.09;4883798;29;20342;-71
2022/11/12 02:30:32;;;;;;;5.87;3.70;;;;;;;3.11;100.00;102440.47;4886853;29;20312;-71
2022/11/12 02:33:17;;;;;;;7.00;4.70;;;;;;;3.13;100.00;102437.94;4887121;29;20263;-73
2022/11/12 02:36:02;;;;;;;6.17;4.30;;;;;;;3.12;100.00;102442.22;4889258;29;20212;-71
2022/11/12 02:38:48;;;;;;;6.27;4.67;;;;;;;3.06;100.00;102441.13;4888749;29;20212;-70
2022/11/12 02:41:33;;;;;;;7.03;3.90;;;;;;;3.11;100.00;102447.31;4888537;29;20406;-70
2022/11/12 02:44:18;;;;;;;5.70;4.13;;;;;;;3.11;100.00;102453.34;4884344;29;20212;-70
2022/11/12 02:47:03;;;;;;;6.20;3.80;;;;;;;3.05;100.00;102450.56;4885276;29;20207;-70
2022/11/12 02:49:48;;;;;;;9.13;4.67;;;;;;;2.95;100.00;102453.66;4889432;29;20272;-71
2022/11/12 02:52:34;;;;;;;6.63;3.73;;;;;;;2.95;100.00;102454.53;4882372;29;20228;-70
2022/11/12 02:55:20;;;;;;;6.70;4.13;;;;;;;2.96;100.00;102458.88;4886562;29;20709;-70
2022/11/12 02:58:05;;;;;;;6.73;4.50;;;;;;;2.92;100.00;102459.59;4886708;29;20232;-70
2022/11/12 03:00:50;;;;;;;9.13;4.30;;;;;;;2.92;100.00;102462.19;4889988;29;20570;-71
2022/11/12 03:03:35;;;;;;;5.70;4.17;;;;;;;2.85;100.00;102465.38;4883915;29;20293;-72
2022/11/12 03:06:20;;;;;;;9.40;4.23;;;;;;;2.91;100.00;102472.41;4887382;29;20208;-72
2022/11/12 03:09:05;;;;;;;5.90;4.27;;;;;;;2.91;100.00;102472.41;4887538;29;20204;-72
2022/11/12 03:11:52;;;;;;;8.60;5.23;;;;;;;2.86;100.00;102471.38;4885585;29;20255;-71
2022/11/12 03:14:37;;;;;;;7.17;4.63;;;;;;;2.90;100.00;102476.69;4885204;29;20697;-72
2022/11/12 03:17:22;;;;;;;9.93;4.43;;;;;;;2.90;100.00;102479.25;4885040;29;20231;-72
2022/11/12 03:20:07;;;;;;;8.10;4.30;;;;;;;2.90;100.00;102481.84;4887865;29;20219;-72
2022/11/12 03:25:38;;;;;;;6.33;4.37;;;;;;;2.88;100.00;102482.63;4920909;29;20271;-72
2022/11/12 03:28:24;;;;;;;6.53;3.80;;;;;;;2.82;100.00;102486.72;4926259;29;20214;-72
2022/11/12 03:31:10;;;;;;;6.50;3.90;;;;;;;2.79;100.00;102489.19;4926228;29;20210;-71
2022/11/12 03:33:56;;;;;;;5.53;4.07;;;;;;;2.78;100.00;102495.19;4936721;28;20229;-71
2022/11/12 03:36:41;;;;;;;6.90;4.07;;;;;;;2.68;100.00;102490.50;4945256;28;20342;-72
2022/11/12 03:39:26;;;;;;;7.83;4.67;;;;;;;2.68;100.00;102490.50;4942111;28;20673;-71
2022/11/12 03:42:11;;;;;;;5.40;4.10;;;;;;;2.72;100.00;102487.22;4944212;28;20794;-72
2022/11/12 03:44:58;;;;;;;6.40;4.63;;;;;;;2.75;100.00;102489.91;4942649;28;20238;-72
2022/11/12 03:47:43;;;;;;;7.53;4.27;;;;;;;2.77;100.00;102480.53;4943475;28;20217;-72
2022/11/12 03:50:29;;;;;;;8.50;4.83;;;;;;;2.80;100.00;102490.09;4947219;28;20209;-72
2022/11/12 03:53:15;;;;;;;8.57;4.33;;;;;;;2.82;100.00;102493.59;4941244;28;20228;-72
2022/11/12 03:56:00;;;;;;;8.10;4.33;;;;;;;2.80;100.00;102488.38;4944264;28;20216;-71
2022/11/12 03:58:45;;;;;;;5.93;4.20;;;;;;;2.69;100.00;102481.97;4945237;28;20269;-73
2022/11/12 04:01:31;;;;;;;5.10;3.80;;;;;;;2.67;100.00;102481.00;4942415;29;20209;-72
2022/11/12 04:04:17;;;;;;;6.30;4.27;;;;;;;2.59;100.00;102483.31;4945417;28;20724;-72
2022/11/12 04:10:05;;;;;;;6.63;3.77;;;;;;;2.55;100.00;102485.72;4944200;28;20635;-71
2022/11/12 04:22:02;;;;;;;7.33;4.63;;;;;;;2.29;100.00;102472.78;4942203;28;20213;-72
2022/11/12 04:27:50;;;;;;;7.00;4.30;;;;;;;2.33;100.00;102474.63;4945230;29;20227;-72
2022/11/12 04:30:34;;;;;;;8.97;4.60;;;;;;;2.41;100.00;102470.66;4940076;28;20345;-72
2022/11/12 04:33:20;;;;;;;6.97;4.33;;;;;;;2.37;100.00;102468.78;4941796;28;20265;-72
2022/11/12 04:36:07;;;;;;;7.77;4.70;;;;;;;2.36;100.00;102464.47;4944643;28;20213;-72
2022/11/12 04:38:52;;;;;;;6.07;4.10;;;;;;;2.35;100.00;102465.28;4942265;29;20237;-72
2022/11/12 04:47:43;;;;;;;7.33;4.57;;;;;;;2.32;100.00;102465.16;4939567;29;20205;-72
2022/11/12 04:50:28;;;;;;;7.30;4.63;;;;;;;2.15;100.00;102464.53;4944715;28;20398;-72
2022/11/12 04:53:15;;;;;;;6.27;4.40;;;;;;;2.14;100.00;102467.91;4942277;28;20241;-72
2022/11/12 04:56:00;;;;;;;5.93;4.27;;;;;;;2.12;100.00;102461.84;4943664;28;20206;-71
2022/11/12 04:58:45;;;;;;;6.60;4.43;;;;;;;2.23;100.00;102470.88;4942290;28;20233;-72
2022/11/12 05:01:30;;;;;;;7.47;4.63;;;;;;;2.18;100.00;102463.75;4941488;28;20214;-72
2022/11/12 05:04:15;;;;;;;9.73;4.80;;;;;;;2.22;100.00;102458.78;4939970;28;20745;-71
2022/11/12 05:07:01;;;;;;;6.73;4.93;;;;;;;2.14;100.00;102461.91;4940110;28;20708;-71
2022/11/12 05:09:48;;;;;;;6.37;3.90;;;;;;;2.06;100.00;102462.50;4941665;28;20716;-72
2022/11/12 05:12:33;;;;;;;8.73;4.43;;;;;;;2.04;100.00;102464.13;4944214;28;20221;-71
2022/11/12 05:15:18;;;;;;;8.03;4.63;;;;;;;2.20;100.00;102467.25;4942416;29;20225;-72
2022/11/12 05:18:03;;;;;;;6.90;4.13;;;;;;;2.23;100.00;102467.38;4941056;29;20268;-72
2022/11/12 05:20:53;;;;;;;6.70;4.10;;;;;;;2.25;100.00;102468.31;4939900;28;20643;-72
2022/11/12 05:23:39;;;;;;;5.23;3.70;;;;;;;2.27;100.00;102471.84;4942972;28;20336;-72
2022/11/12 05:26:25;;;;;;;6.37;3.83;;;;;;;2.04;100.00;102470.94;4940005;29;20229;-72
2022/11/12 05:29:10;;;;;;;9.17;6.47;;;;;;;1.99;100.00;102468.22;4937451;28;20542;-71
2022/11/12 05:31:55;;;;;;;7.43;5.13;;;;;;;1.87;100.00;102473.75;4943050;28;20213;-72
2022/11/12 05:34:41;;;;;;;10.53;5.67;;;;;;;1.91;100.00;102471.31;4939581;28;20595;-72
2022/11/12 05:37:26;;;;;;;7.17;5.13;;;;;;;1.78;100.00;102472.53;4940693;29;20551;-72
2022/11/12 05:40:12;;;;;;;8.83;5.73;;;;;;;1.92;100.00;102483.34;4945539;29;20206;-73
2022/11/12 05:42:59;;;;;;;7.43;5.20;;;;;;;2.03;100.00;102484.66;4940744;28;20232;-71
2022/11/12 05:45:44;;;;;;;8.30;4.87;;;;;;;1.99;100.00;102487.94;4942283;28;20870;-72
2022/11/12 05:48:30;;;;;;;6.43;4.50;;;;;;;1.92;100.00;102493.63;4940051;28;20238;-72
2022/11/12 05:51:15;;;;;;;7.33;4.83;;;;;;;1.84;100.00;102488.19;4946893;28;20361;-72
2022/11/12 05:54:02;;;;;;;11.37;4.90;;;;;;;1.68;100.00;102491.84;4942359;29;20295;-71
2022/11/12 05:56:47;;;;;;;7.17;4.77;;;;;;;1.75;100.00;102495.56;4943418;29;20209;-72
2022/11/12 05:59:34;;;;;;;10.97;5.30;;;;;;;1.62;100.00;102499.31;4942050;29;20209;-72
2022/11/12 06:02:19;;;;;;;7.13;4.90;;;;;;;1.58;100.00;102494.84;4941708;29;20209;-71
2022/11/12 06:05:04;;;;;;;8.17;4.80;;;;;;;1.56;100.00;102504.22;4943572;29;20213;-71
2022/11/12 06:07:49;;;;;;;7.60;4.70;;;;;;;1.70;100.00;102508.22;4946211;28;20711;-72
2022/11/12 06:10:34;;;;;;;7.43;4.87;;;;;;;1.58;100.00;102521.44;4949569;29;20502;-72
2022/11/12 06:13:21;;;;;;;14.57;5.53;;;;;;;1.77;100.00;102517.94;4944865;29;20299;-72
2022/11/12 06:16:08;;;;;;;6.87;5.00;;;;;;;1.54;100.00;102514.44;4946520;29;20709;-73
2022/11/12 06:18:53;;;;;;;7.27;4.80;;;;;;;1.54;100.00;102518.69;4943357;28;20657;-72
2022/11/12 06:21:38;;;;;;;8.23;5.00;;;;;;;1.61;100.00;102516.44;4942753;28;20228;-71
2022/11/12 06:24:23;;;;;;;11.53;5.13;;;;;;;1.58;100.00;102529.16;4938441;28;20239;-71
2022/11/12 06:27:08;;;;;;;6.90;4.40;;;;;;;1.58;100.00;102530.84;4944919;28;20206;-73
2022/11/12 06:29:53;;;;;;;9.13;4.60;;;;;;;1.58;100.00;102533.44;4944873;28;20233;-71
2022/11/12 06:32:40;;;;;;;8.23;5.00;;;;;;;1.52;100.00;102528.91;4945997;29;20686;-72
2022/11/12 06:35:25;;;;;;;10.60;5.43;;;;;;;1.62;100.00;102533.63;4945442;29;20240;-72
2022/11/12 06:38:10;;;;;;;7.30;4.60;;;;;;;1.59;100.00;102535.19;4941902;28;20264;-71
2022/11/12 06:40:56;;;;;;;7.17;4.90;;;;;;;1.55;100.00;102530.72;4946447;28;20489;-71
2022/11/12 06:43:41;;;;;;;7.87;4.60;;;;;;;1.64;100.00;102534.56;4944315;28;20233;-72
2022/11/12 06:46:26;;;;;;;8.33;5.40;;;;;;;1.62;100.00;102523.34;4943678;28;20701;-71
2022/11/12 06:49:13;;;;;;;6.43;4.70;;;;;;;1.56;100.00;102522.22;4942774;28;20229;-72
2022/11/12 06:51:58;;;;;;;6.63;4.40;;;;;;;1.64;100.00;102533.69;4946265;28;20213;-72
2022/11/12 06:54:43;;;;;;;8.20;5.57;;;;;;;1.50;100.00;102533.13;4944722;28;20685;-71
2022/11/12 06:57:28;;;;;;;11.33;5.10;;;;;;;1.55;100.00;102529.06;4942369;28;20342;-72
2022/11/12 07:00:14;;;;;;;6.80;5.00;;;;;;;1.54;100.00;102535.00;4945237;29;20209;-72
2022/11/12 07:03:00;;;;;;;9.70;5.50;;;;;;;1.58;100.00;102530.84;4941875;28;20253;-72
2022/11/12 07:05:48;;;;;;;9.70;5.43;;;;;;;1.61;100.00;102536.13;4942393;28;20586;-71
2022/11/12 07:08:33;;;;;;;12.57;5.13;;;;;;;1.73;100.00;102538.34;4941873;28;20329;-71
2022/11/12 07:11:19;;;;;;;7.33;4.83;;;;;;;1.88;100.00;102529.56;4940954;28;20229;-72
2022/11/12 07:14:05;;;;;;;8.80;5.93;;;;;;;1.93;100.00;102537.44;4935991;28;20257;-72
2022/11/12 07:16:50;;;;;;;10.07;6.07;;;;;;;2.00;100.00;102542.00;4943570;28;20205;-72
2022/11/12 07:19:35;;;;;;;16.47;14.57;;;;;;;2.07;100.00;102545.69;4943088;28;20314;-72
2022/11/12 07:22:22;;;;;;;13.40;10.33;;;;;;;2.14;100.00;102536.53;4938576;28;20669;-72
2022/11/12 07:25:07;;;;;;;14.67;9.87;;;;;;;1.97;100.00;102541.91;4944499;28;20234;-72
2022/11/12 07:27:53;;;;;;;12.27;9.00;;;;;;;2.17;100.00;102544.38;4943595;28;20678;-72
2022/11/12 07:30:38;;;;;;;15.60;9.63;;;;;;;2.24;100.00;102551.53;4944124;28;20324;-72
2022/11/12 07:33:24;;;;;;;11.97;8.03;;;;;;;2.29;100.00;102552.56;4941668;28;20257;-72
2022/11/12 07:36:12;;;;;;;12.97;8.80;;;;;;;2.35;100.00;102550.22;4939503;28;20212;-71
2022/11/12 07:38:58;;;;;;;13.53;8.53;;;;;;;2.38;100.00;102552.94;4941819;28;20571;-72
2022/11/12 07:41:44;;;;;;;11.30;7.77;;;;;;;2.38;100.00;102559.78;4937610;28;20377;-71
2022/11/12 07:44:29;;;;;;;11.20;7.60;;;;;;;2.39;100.00;102553.78;4937208;28;20311;-72
2022/11/12 07:47:14;;;;;;;13.20;9.10;;;;;;;2.44;100.00;102552.28;4940456;28;20217;-72
2022/11/12 07:50:00;;;;;;;13.03;7.80;;;;;;;2.43;100.00;102566.00;4941754;28;20245;-72
2022/11/12 07:52:45;;;;;;;11.97;8.33;;;;;;;2.48;100.00;102561.91;4941549;29;20225;-72
2022/11/12 07:55:31;;;;;;;17.43;8.07;;;;;;;2.57;100.00;102545.88;4943388;28;20217;-73
2022/11/12 07:58:16;;;;;;;12.47;7.93;;;;;;;2.64;100.00;102548.75;4943039;28;20527;-72
2022/11/12 08:01:07;;;;;;;12.87;9.07;;;;;;;2.77;100.00;102549.22;4943516;28;20607;-71
2022/11/12 08:03:52;;;;;;;14.47;9.07;;;;;;;2.79;100.00;102563.03;4940530;28;20237;-72
2022/11/12 08:06:38;;;;;;;12.90;8.10;;;;;;;2.87;100.00;102558.16;4938783;28;20229;-72
2022/11/12 08:09:22;;;;;;;11.47;7.13;;;;;;;2.88;100.00;102565.06;4940870;28;21090;-73
2022/11/12 08:12:09;;;;;;;11.07;7.87;;;;;;;2.91;100.00;102563.47;4944047;29;20296;-72
2022/11/12 08:14:54;;;;;;;16.30;7.47;;;;;;;2.96;100.00;102566.22;4943300;28;20292;-71
2022/11/12 08:17:39;;;;;;;14.90;7.73;;;;;;;3.01;100.00;102560.41;4942025;28;20229;-72
2022/11/12 08:20:24;;;;;;;12.47;7.27;;;;;;;3.10;100.00;102562.44;4943631;28;20241;-72
2022/11/12 08:23:10;;;;;;;12.97;8.47;;;;;;;3.19;100.00;102567.06;4942416;28;20308;-73
2022/11/12 08:25:58;;;;;;;15.90;8.27;;;;;;;3.26;100.00;102573.31;4939130;29;20231;-72
2022/11/12 08:28:45;;;;;;;37.27;16.37;;;;;;;3.35;100.00;102579.66;4944329;28;20245;-72
2022/11/12 08:31:30;;;;;;;38.50;16.17;;;;;;;3.51;100.00;102575.03;4942275;28;20655;-72
2022/11/12 08:34:16;;;;;;;20.37;11.20;;;;;;;3.64;100.00;102584.03;4943010;29;20265;-72
2022/11/12 08:37:01;;;;;;;12.17;8.00;;;;;;;3.78;100.00;102583.69;4943729;29;20349;-72
2022/11/12 08:39:46;;;;;;;13.00;8.07;;;;;;;3.94;100.00;102587.66;4944721;28;20213;-71
2022/11/12 08:42:31;;;;;;;13.50;8.03;;;;;;;4.00;100.00;102575.78;4943792;29;20210;-72
2022/11/12 08:45:17;;;;;;;14.33;9.13;;;;;;;4.08;100.00;102580.34;4944447;29;20214;-71
2022/11/12 08:48:04;;;;;;;16.73;10.00;;;;;;;4.25;100.00;102578.28;4937434;29;20215;-71
2022/11/12 08:50:49;;;;;;;16.43;9.30;;;;;;;4.33;100.00;102584.56;4941100;28;20342;-72
2022/11/12 08:53:35;;;;;;;11.60;8.07;;;;;;;4.45;100.00;102584.09;4940051;28;20271;-71
2022/11/12 08:56:20;;;;;;;12.97;9.03;;;;;;;4.60;100.00;102583.66;4943421;29;20216;-72
2022/11/12 08:59:05;;;;;;;13.43;9.20;;;;;;;4.69;100.00;102589.09;4943348;29;20250;-72
2022/11/12 09:01:51;;;;;;;13.10;8.23;;;;;;;4.85;100.00;102580.06;4942784;28;20217;-72
2022/11/12 09:04:36;;;;;;;12.97;8.80;;;;;;;4.93;100.00;102588.06;4940768;28;20361;-72
2022/11/12 09:07:21;;;;;;;16.60;7.93;;;;;;;5.00;100.00;102571.88;4939642;29;20265;-72
2022/11/12 09:10:07;;;;;;;13.17;8.37;;;;;;;5.08;100.00;102574.69;4938650;28;21071;-73
2022/11/12 09:12:53;;;;;;;21.13;8.70;;;;;;;5.21;100.00;102575.91;4940131;28;20226;-71
2022/11/12 09:15:38;;;;;;;16.60;9.23;;;;;;;5.30;100.00;102571.84;4939423;29;20696;-71
2022/11/12 09:18:24;;;;;;;15.03;9.50;;;;;;;5.46;100.00;102570.53;4941727;29;20702;-72
2022/11/12 09:21:11;;;;;;;17.77;9.13;;;;;;;5.50;100.00;102574.97;4942769;29;20293;-72
2022/11/12 09:23:56;;;;;;;20.20;9.77;;;;;;;5.63;100.00;102573.56;4952053;23;20558;-69
2022/11/12 09:26:41;;;;;;;18.00;9.33;;;;;;;5.71;100.00;102571.16;4924454;29;20290;-71
2022/11/12 09:29:27;;;;;;;17.63;9.60;;;;;;;5.83;100.00;102574.06;4923930;29;20242;-72
2022/11/12 09:32:11;;;;;;;15.30;9.87;;;;;;;5.87;100.00;102567.25;4921600;29;20218;-72
2022/11/12 09:34:58;;;;;;;17.67;9.93;;;;;;;5.95;100.00;102573.50;4920727;29;20242;-70
2022/11/12 09:37:43;;;;;;;17.93;10.37;;;;;;;6.07;100.00;102583.31;4916024;29;20656;-71
2022/11/12 09:40:41;;;;;;;17.83;9.93;;;;;;;6.18;100.00;102574.06;4920898;29;20211;-71
2022/11/12 09:43:31;;;;;;;18.43;9.90;;;;;;;6.21;100.00;102579.31;4923657;29;20354;-71
2022/11/12 09:46:29;;;;;;;18.10;10.40;;;;;;;6.29;100.00;102576.91;4926317;29;20216;-71
2022/11/12 09:49:17;;;;;;;17.27;9.13;;;;;;;6.38;100.00;102576.22;4925132;29;20246;-70
2022/11/12 09:52:10;;;;;;;17.10;9.57;;;;;;;6.47;100.00;102563.47;4917514;29;20703;-70
2022/11/12 09:55:02;;;;;;;20.83;11.00;;;;;;;6.54;100.00;102578.31;4923110;29;20612;-71
2022/11/12 09:57:47;;;;;;;14.93;9.83;;;;;;;6.62;100.00;102578.50;4919762;29;20584;-71
2022/11/12 10:00:32;;;;;;;21.00;9.93;;;;;;;6.64;100.00;102569.88;4927041;29;20238;-72
2022/11/12 10:03:30;;;;;;;16.17;10.20;;;;;;;6.68;100.00;102569.97;4922384;29;20207;-71
2022/11/12 10:06:18;;;;;;;19.43;10.03;;;;;;;6.77;100.00;102564.97;4921626;29;20223;-71
2022/11/12 10:09:12;;;;;;;21.53;11.27;;;;;;;6.89;100.00;102573.00;4917762;29;20729;-71
2022/11/12 10:18:50;;;;;;;21.07;10.57;;;;;;;7.02;100.00;102555.97;4922331;29;20218;-70
2022/11/12 10:21:46;;;;;;;20.07;10.13;;;;;;;7.07;100.00;102554.34;4927183;29;20265;-71
2022/11/12 10:24:36;;;;;;;23.03;10.97;;;;;;;7.13;100.00;102554.44;4924329;29;20365;-72
2022/11/12 10:27:25;;;;;;;19.27;10.77;;;;;;;7.21;100.00;102549.38;4924819;29;20213;-71
2022/11/12 10:30:17;;;;;;;21.00;10.70;;;;;;;7.37;100.00;102540.19;4924919;29;20229;-70
2022/11/12 10:33:03;;;;;;;22.73;10.13;;;;;;;7.43;100.00;102542.00;4921419;29;20230;-72
2022/11/12 10:35:48;;;;;;;20.87;10.13;;;;;;;7.45;100.00;102535.13;4927175;29;20288;-69
2022/11/12 10:38:35;;;;;;;19.70;10.63;;;;;;;7.44;100.00;102549.84;4924630;29;20251;-71
2022/11/12 10:41:25;;;;;;;26.23;11.67;;;;;;;7.54;100.00;102545.66;4923256;29;20206;-70
2022/11/12 10:44:14;;;;;;;30.77;12.40;;;;;;;7.62;100.00;102533.69;4921146;29;20229;-72
2022/11/12 10:47:22;;;;;;;25.70;11.80;;;;;;;7.72;100.00;102538.19;4921790;29;20299;-71
2022/11/12 10:50:17;;;;;;;35.07;13.13;;;;;;;7.88;100.00;102552.28;4923135;29;20656;-71
2022/11/12 10:53:06;;;;;;;39.03;13.03;;;;;;;8.02;100.00;102541.22;4924590;29;20311;-70
2022/11/12 10:55:56;;;;;;;27.33;12.03;;;;;;;8.07;100.00;102545.66;4922075;29;20229;-70
2022/11/12 10:58:42;;;;;;;25.20;12.20;;;;;;;8.14;100.00;102542.28;4921822;29;20295;-71
2022/11/12 11:01:27;;;;;;;24.00;11.73;;;;;;;8.23;100.00;102551.94;4920692;29;20210;-70
2022/11/12 11:04:22;;;;;;;23.57;12.43;;;;;;;8.34;100.00;102545.16;4922279;29;20602;-71
2022/11/12 11:07:20;;;;;;;31.07;10.97;;;;;;;8.44;100.00;102555.72;4919051;29;20238;-71
2022/11/12 11:10:06;;;;;;;23.80;11.67;;;;;;;8.48;100.00;102547.97;4924042;29;20233;-70
2022/11/12 11:13:08;;;;;;;25.77;11.10;;;;;;;8.55;100.00;102548.03;4919170;29;20208;-71
2022/11/12 11:16:00;;;;;;;25.53;11.00;;;;;;;8.66;100.00;102562.09;4920960;29;20233;-72
2022/11/12 11:18:49;;;;;;;32.87;11.33;;;;;;;8.68;100.00;102552.56;4925244;29;20227;-71
2022/11/12 11:22:01;;;;;;;23.57;10.77;;;;;;;8.76;100.00;102560.44;4921002;29;20768;-71
2022/11/12 11:24:57;;;;;;;22.30;10.07;;;;;;;8.85;100.00;102553.66;4922450;29;20242;-69
2022/11/12 11:27:57;;;;;;;19.90;10.10;;;;;;;8.89;100.00;102551.94;4921545;29;20212;-71
2022/11/12 11:30:51;;;;;;;19.93;9.90;;;;;;;8.95;100.00;102562.41;4922883;29;20260;-70
2022/11/12 11:33:47;;;;;;;20.23;9.70;;;;;;;9.04;100.00;102566.84;4918759;29;21044;-72
2022/11/12 11:36:39;;;;;;;18.47;8.40;;;;;;;9.05;100.00;102560.81;4922125;29;20214;-71
2022/11/12 11:39:33;;;;;;;16.70;8.73;;;;;;;8.98;100.00;102562.44;4924171;29;20222;-71
2022/11/12 11:42:36;;;;;;;20.20;9.00;;;;;;;9.00;100.00;102573.75;4924955;29;20273;-71
2022/11/12 11:45:30;;;;;;;13.53;7.27;;;;;;;9.06;100.00;102571.22;4922605;29;20240;-71
2022/11/12 11:48:24;;;;;;;11.03;6.90;;;;;;;9.17;100.00;102560.94;4919120;29;20233;-71
2022/11/12 11:51:28;;;;;;;10.60;6.50;;;;;;;9.43;100.00;102565.53;4920212;29;20234;-69
2022/11/12 11:54:34;;;;;;;7.10;5.07;;;;;;;9.60;100.00;102576.09;4918721;29;20250;-70
2022/11/12 11:57:23;;;;;;;6.73;4.73;;;;;;;9.71;100.00;102574.47;4921653;29;20211;-71
2022/11/12 12:00:15;;;;;;;6.90;4.80;;;;;;;9.73;100.00;102561.47;4923678;29;20331;-71
2022/11/12 12:03:17;;;;;;;7.87;4.27;;;;;;;9.72;100.00;102563.19;4921583;29;20265;-71
2022/11/12 12:06:12;;;;;;;6.57;4.03;;;;;;;9.79;100.00;102561.50;4923671;29;21665;-71
2022/11/12 12:09:18;;;;;;;7.70;4.37;;;;;;;9.83;100.00;102552.84;4922029;29;20298;-72
2022/11/12 12:12:13;;;;;;;5.07;3.53;;;;;;;9.85;100.00;102551.16;4925411;29;20244;-72
2022/11/12 12:15:05;;;;;;;6.40;3.67;;;;;;;9.93;100.00;102548.59;4919691;29;20367;-71
2022/11/12 12:18:02;;;;;;;4.60;3.27;;;;;;;9.92;100.00;102533.78;4921899;29;20219;-71
2022/11/12 12:20:53;;;;;;;6.17;3.60;;;;;;;9.95;100.00;102546.84;4923720;29;20879;-72
2022/11/12 12:23:44;;;;;;;3.90;2.90;;;;;;;9.91;100.00;102524.25;4919661;29;20242;-72
2022/11/12 12:26:37;;;;;;;8.03;3.47;;;;;;;9.88;100.00;102530.28;4922548;29;20590;-70
2022/11/12 12:29:29;;;;;;;4.03;3.23;;;;;;;9.90;100.00;102530.31;4917757;29;20274;-71
2022/11/12 12:32:20;;;;;;;4.70;3.47;;;;;;;9.85;100.00;102523.34;4919925;29;20214;-71
2022/11/12 12:35:15;;;;;;;7.17;3.77;;;;;;;9.81;100.00;102518.94;4918067;29;20592;-72
2022/11/12 12:38:11;;;;;;;3.93;3.17;;;;;;;9.89;100.00;102521.63;4917445;29;20306;-70
2022/11/12 12:41:02;;;;;;;5.40;3.43;;;;;;;9.92;100.00;102518.16;4925623;29;20215;-71
2022/11/12 12:43:52;;;;;;;6.27;3.37;;;;;;;9.97;100.00;102519.97;4920615;29;20239;-71
2022/11/12 12:46:40;;;;;;;5.00;3.43;;;;;;;10.09;100.00;102510.47;4919013;29;21119;-72
2022/11/12 12:49:32;;;;;;;5.67;3.43;;;;;;;10.03;100.00;102506.09;4922919;29;20227;-71
2022/11/12 12:52:17;;;;;;;5.63;3.37;;;;;;;10.04;100.00;102507.81;4916902;29;20218;-70
2022/11/12 12:55:03;;;;;;;6.00;3.50;;;;;;;10.05;100.00;102517.41;4922326;29;20304;-71
2022/11/12 12:57:58;;;;;;;4.83;3.47;;;;;;;10.07;100.00;102499.16;4919301;29;20210;-68
2022/11/12 13:00:49;;;;;;;4.77;3.37;;;;;;;10.07;100.00;102504.38;4922151;29;20214;-71
2022/11/12 13:03:49;;;;;;;5.57;3.03;;;;;;;10.15;100.00;102513.09;4923633;29;20216;-71
2022/11/12 13:06:37;;;;;;;7.33;3.83;;;;;;;10.16;100.00;102513.09;4917415;29;20215;-71
2022/11/12 13:09:25;;;;;;;5.17;2.63;;;;;;;10.11;100.00;102501.78;4920653;29;20235;-71
2022/11/12 13:12:22;;;;;;;5.07;3.20;;;;;;;10.08;100.00;102495.69;4918927;29;20228;-71
2022/11/12 13:15:14;;;;;;;3.53;2.77;;;;;;;10.02;100.00;102493.91;4921864;29;20230;-70
2022/11/12 13:18:00;;;;;;;4.00;2.93;;;;;;;9.97;100.00;102499.13;4924095;29;20233;-71
2022/11/12 13:21:08;;;;;;;5.10;3.33;;;;;;;9.99;100.00;102488.66;4918196;29;20254;-71
2022/11/12 13:24:07;;;;;;;4.23;3.03;;;;;;;10.01;100.00;102490.44;4922221;29;20777;-71
2022/11/12 13:26:55;;;;;;;4.27;3.10;;;;;;;10.00;100.00;102509.53;4918996;29;20219;-71
2022/11/12 13:29:42;;;;;;;7.30;3.30;;;;;;;9.97;100.00;102503.44;4921965;29;20706;-70